createdAt,value
2018-09-18T00:00:26.233Z,65.50
2018-09-18T00:02:55.434Z,65.50
2018-09-18T00:05:24.624Z,65.50
2018-09-18T00:07:53.821Z,65.50
2018-09-18T00:10:23.064Z,65.60
2018-09-18T00:12:52.232Z,65.50
2018-09-18T00:15:21.414Z,65.50
2018-09-18T00:17:50.608Z,65.70
2018-09-18T00:20:19.779Z,65.60
2018-09-18T00:22:49.128Z,65.60
2018-09-18T00:25:18.717Z,65.60
2018-09-18T00:27:47.912Z,65.60
2018-09-18T00:30:17.088Z,65.60
2018-09-18T00:32:46.255Z,65.60
2018-09-18T00:35:15.555Z,65.60
2018-09-18T00:37:44.804Z,65.60
2018-09-18T00:40:13.980Z,65.70
2018-09-18T00:42:43.303Z,65.70
2018-09-18T00:45:12.475Z,65.70
2018-09-18T00:47:41.706Z,65.70
2018-09-18T00:50:10.879Z,65.70
2018-09-18T00:52:40.044Z,65.60
2018-09-18T00:55:09.241Z,65.70
2018-09-18T00:57:38.848Z,65.60
2018-09-18T01:00:08.003Z,65.60
2018-09-18T01:02:37.174Z,65.70
2018-09-18T01:05:06.324Z,65.70
2018-09-18T01:07:35.640Z,65.80
2018-09-18T01:10:04.963Z,65.70
2018-09-18T01:12:34.141Z,65.70
2018-09-18T01:15:03.492Z,65.80
2018-09-18T01:17:32.697Z,65.80
2018-09-18T01:20:01.886Z,65.80
2018-09-18T01:22:31.064Z,65.80
2018-09-18T01:25:00.233Z,65.90
2018-09-18T01:27:29.535Z,65.90
2018-09-18T01:29:58.791Z,65.90
2018-09-18T01:32:27.991Z,65.90
2018-09-18T01:34:57.256Z,66.00
2018-09-18T01:37:26.863Z,65.80
2018-09-18T01:39:56.058Z,66.00
2018-09-18T01:42:25.252Z,66.00
2018-09-18T01:44:54.427Z,66.00
2018-09-18T01:47:23.729Z,66.10
2018-09-18T01:49:52.888Z,66.00
2018-09-18T01:52:22.057Z,66.00
2018-09-18T01:54:51.222Z,66.00
2018-09-18T01:57:20.575Z,66.00
2018-09-18T01:59:50.370Z,66.00
2018-09-18T02:02:19.656Z,66.10
2018-09-18T02:04:48.855Z,66.10
2018-09-18T02:07:18.079Z,66.10
2018-09-18T02:09:47.301Z,66.10
2018-09-18T02:12:16.480Z,66.20
2018-09-18T02:14:45.656Z,66.20
2018-09-18T02:17:14.956Z,66.30
2018-09-18T02:19:44.260Z,66.30
2018-09-18T02:22:13.453Z,66.40
2018-09-18T02:24:42.625Z,66.40
2018-09-18T02:27:11.871Z,66.40
2018-09-18T02:29:41.053Z,66.50
2018-09-18T02:32:10.237Z,66.40
2018-09-18T02:34:39.447Z,66.50
2018-09-18T02:37:08.668Z,66.50
2018-09-18T02:39:37.839Z,66.60
2018-09-18T02:42:07.113Z,66.50
2018-09-18T02:44:36.268Z,66.60
2018-09-18T02:47:05.537Z,66.70
2018-09-18T02:49:34.761Z,66.70
2018-09-18T02:52:04.005Z,66.70
2018-09-18T02:54:33.170Z,66.80
2018-09-18T02:57:02.464Z,66.80
2018-09-18T02:59:31.667Z,66.90
2018-09-18T03:02:00.848Z,66.90
2018-09-18T03:04:30.456Z,66.90
2018-09-18T03:06:59.704Z,66.90
2018-09-18T03:09:28.899Z,67.00
2018-09-18T03:11:58.054Z,67.00
2018-09-18T03:14:27.245Z,67.00
2018-09-18T03:16:56.468Z,67.10
2018-09-18T03:19:25.705Z,67.10
2018-09-18T03:21:54.892Z,67.10
2018-09-18T03:24:24.090Z,67.10
2018-09-18T03:26:53.345Z,68.00
2018-09-18T03:29:22.535Z,67.30
2018-09-18T03:31:51.710Z,67.30
2018-09-18T03:34:20.879Z,67.30
2018-09-18T03:36:50.156Z,67.20
2018-09-18T03:39:19.387Z,67.30
2018-09-18T03:41:48.585Z,67.30
2018-09-18T03:44:17.761Z,67.40
2018-09-18T03:46:47.031Z,67.50
2018-09-18T03:49:16.222Z,67.40
2018-09-18T03:51:45.427Z,67.40
2018-09-18T03:54:14.620Z,67.50
2018-09-18T03:56:43.920Z,67.50
2018-09-18T03:59:13.196Z,67.50
2018-09-18T04:01:42.422Z,67.60
2018-09-18T04:04:11.642Z,68.00
2018-09-18T04:06:40.965Z,68.00
2018-09-18T04:09:12.011Z,67.40
2018-09-18T04:11:41.742Z,66.70
2018-09-18T04:14:10.956Z,66.60
2018-09-18T04:16:40.221Z,66.60
2018-09-18T04:19:09.517Z,66.70
2018-09-18T04:21:41.633Z,66.70
2018-09-18T04:24:10.909Z,66.60
2018-09-18T04:26:41.257Z,66.60
2018-09-18T04:29:10.853Z,66.80
2018-09-18T04:31:41.293Z,67.00
2018-09-18T04:34:10.518Z,66.90
2018-09-18T04:36:39.913Z,67.40
2018-09-18T04:39:11.474Z,67.90
2018-09-18T04:41:40.959Z,67.20
2018-09-18T04:44:10.988Z,67.00
2018-09-18T04:46:40.384Z,67.10
2018-09-18T04:49:09.662Z,67.90
2018-09-18T04:51:38.958Z,67.90
2018-09-18T04:54:08.229Z,67.90
2018-09-18T04:56:37.529Z,67.90
2018-09-18T04:59:06.863Z,67.70
2018-09-18T05:01:37.099Z,67.60
2018-09-18T05:04:06.343Z,67.60
2018-09-18T05:06:35.772Z,67.50
2018-09-18T05:09:06.930Z,67.50
2018-09-18T05:11:36.155Z,67.40
2018-09-18T05:14:05.946Z,67.50
2018-09-18T05:16:35.765Z,67.30
2018-09-18T05:19:05.009Z,67.40
2018-09-18T05:21:34.277Z,67.40
2018-09-18T05:24:03.520Z,67.50
2018-09-18T05:26:32.915Z,67.30
2018-09-18T05:29:02.168Z,67.30
2018-09-18T05:31:31.480Z,67.10
2018-09-18T05:34:00.780Z,67.20
2018-09-18T05:36:30.219Z,67.20
2018-09-18T05:38:59.515Z,67.40
2018-09-18T05:41:29.177Z,67.50
2018-09-18T05:43:58.429Z,67.40
2018-09-18T05:46:28.169Z,67.30
2018-09-18T05:48:57.705Z,67.00
2018-09-18T05:51:27.007Z,67.20
2018-09-18T05:53:56.269Z,67.00
2018-09-18T05:56:25.692Z,67.20
2018-09-18T05:58:54.971Z,67.00
2018-09-18T06:01:24.574Z,67.00
2018-09-18T06:03:53.889Z,67.00
2018-09-18T06:06:23.244Z,67.30
2018-09-18T06:08:52.556Z,67.10
2018-09-18T06:11:21.964Z,67.30
2018-09-18T06:13:51.308Z,67.10
2018-09-18T06:16:20.691Z,66.80
2018-09-18T06:18:50.258Z,67.20
2018-09-18T06:21:19.516Z,67.20
2018-09-18T06:23:48.827Z,67.00
2018-09-18T06:26:18.210Z,67.10
2018-09-18T06:28:47.440Z,67.10
2018-09-18T06:31:16.778Z,67.00
2018-09-18T06:33:46.027Z,67.00
2018-09-18T06:36:15.723Z,67.00
2018-09-18T06:38:45.001Z,66.80
2018-09-18T06:41:14.247Z,67.10
2018-09-18T06:43:43.893Z,67.10
2018-09-18T06:46:13.255Z,67.20
2018-09-18T06:48:42.588Z,67.00
2018-09-18T06:51:12.222Z,67.00
2018-09-18T06:53:41.527Z,66.80
2018-09-18T06:56:10.856Z,66.90
2018-09-18T06:58:40.127Z,67.10
2018-09-18T07:01:09.401Z,67.10
2018-09-18T07:03:38.700Z,67.00
2018-09-18T07:06:08.391Z,67.00
2018-09-18T07:08:37.661Z,67.00
2018-09-18T07:11:07.221Z,66.80
2018-09-18T07:13:36.968Z,66.60
2018-09-18T07:16:06.609Z,66.60
2018-09-18T07:18:35.861Z,66.80
2018-09-18T07:21:05.297Z,66.70
2018-09-18T07:23:34.838Z,66.90
2018-09-18T07:26:04.112Z,66.90
2018-09-18T07:28:33.415Z,66.70
2018-09-18T07:31:02.750Z,66.60
2018-09-18T07:33:32.026Z,66.30
2018-09-18T07:36:01.409Z,66.30
2018-09-18T07:38:30.678Z,66.30
2018-09-18T07:41:00.210Z,66.40
2018-09-18T07:43:29.597Z,66.40
2018-09-18T07:45:59.045Z,66.30
2018-09-18T07:48:33.463Z,66.20
2018-09-18T07:51:02.704Z,66.30
2018-09-18T07:53:31.984Z,66.30
2018-09-18T07:56:01.517Z,66.00
2018-09-18T07:58:30.820Z,66.20
2018-09-18T08:01:00.526Z,66.10
2018-09-18T08:03:29.815Z,66.10
2018-09-18T08:05:59.121Z,66.10
2018-09-18T08:08:28.364Z,66.00
2018-09-18T08:10:57.777Z,65.90
2018-09-18T08:13:27.060Z,66.20
2018-09-18T08:15:56.331Z,66.00
2018-09-18T08:18:25.621Z,66.00
2018-09-18T08:20:54.997Z,66.00
2018-09-18T08:23:24.249Z,66.00
2018-09-18T08:25:53.628Z,66.00
2018-09-18T08:28:23.082Z,66.10
2018-09-18T08:30:52.390Z,66.10
2018-09-18T08:33:21.716Z,66.00
2018-09-18T08:35:50.960Z,66.10
2018-09-18T08:38:20.482Z,65.90
2018-09-18T08:40:49.711Z,65.90
2018-09-18T08:43:19.039Z,66.10
2018-09-18T08:45:48.654Z,65.80
2018-09-18T08:48:17.956Z,65.20
2018-09-18T08:50:47.205Z,65.70
2018-09-18T08:53:16.540Z,65.70
2018-09-18T08:55:45.788Z,65.50
2018-09-18T08:58:15.225Z,65.60
2018-09-18T09:00:44.792Z,65.30
2018-09-18T09:03:14.064Z,65.40
2018-09-18T09:05:43.342Z,65.50
2018-09-18T09:08:12.855Z,65.50
2018-09-18T09:10:42.120Z,65.30
2018-09-18T09:13:11.306Z,65.50
2018-09-18T09:15:40.640Z,65.40
2018-09-18T09:18:11.151Z,65.50
2018-09-18T09:20:40.403Z,65.20
2018-09-18T09:23:09.700Z,65.30
2018-09-18T09:25:38.996Z,65.50
2018-09-18T09:28:08.276Z,65.20
2018-09-18T09:30:37.524Z,65.20
2018-09-18T09:33:07.080Z,65.30
2018-09-18T09:35:36.468Z,65.30
2018-09-18T09:38:05.886Z,65.10
2018-09-18T09:40:35.173Z,65.20
2018-09-18T09:43:04.439Z,65.00
2018-09-18T09:45:33.701Z,65.00
2018-09-18T09:48:03.036Z,65.20
2018-09-18T09:50:32.397Z,65.00
2018-09-18T09:53:01.629Z,65.00
2018-09-18T09:55:30.928Z,64.90
2018-09-18T09:58:00.219Z,64.80
2018-09-18T10:00:34.626Z,64.90
2018-09-18T10:03:03.973Z,65.00
2018-09-18T10:05:33.640Z,64.80
2018-09-18T10:08:02.901Z,65.00
2018-09-18T10:10:32.188Z,65.00
2018-09-18T10:13:01.453Z,65.00
2018-09-18T10:15:30.720Z,64.90
2018-09-18T10:18:00.201Z,64.70
2018-09-18T10:20:29.325Z,64.70
2018-09-18T10:22:58.660Z,65.70
2018-09-18T10:25:27.951Z,64.90
2018-09-18T10:27:57.310Z,65.40
2018-09-18T10:30:26.571Z,64.80
2018-09-18T10:32:55.821Z,64.80
2018-09-18T10:35:25.160Z,65.10
2018-09-18T10:37:54.855Z,64.90
2018-09-18T10:40:24.076Z,65.00
2018-09-18T10:42:53.534Z,64.80
2018-09-18T10:45:22.795Z,64.70
2018-09-18T10:47:52.337Z,64.80
2018-09-18T10:50:21.589Z,64.70
2018-09-18T10:52:50.876Z,64.90
2018-09-18T10:55:20.208Z,64.50
2018-09-18T10:57:49.532Z,64.60
2018-09-18T11:00:18.765Z,64.80
2018-09-18T11:02:48.124Z,64.80
2018-09-18T11:05:17.338Z,64.40
2018-09-18T11:07:46.842Z,64.60
2018-09-18T11:10:16.302Z,64.70
2018-09-18T11:12:45.618Z,64.80
2018-09-18T11:15:14.891Z,64.30
2018-09-18T11:17:44.252Z,64.30
2018-09-18T11:20:13.558Z,64.30
2018-09-18T11:22:42.712Z,64.70
2018-09-18T11:25:11.949Z,64.60
2018-09-18T11:27:41.486Z,64.50
2018-09-18T11:30:10.744Z,64.50
2018-09-18T11:32:40.023Z,64.40
2018-09-18T11:35:09.333Z,64.50
2018-09-18T11:37:38.585Z,64.50
2018-09-18T11:40:07.930Z,64.30
2018-09-18T11:42:37.499Z,64.40
2018-09-18T11:45:06.795Z,64.20
2018-09-18T11:47:36.110Z,64.10
2018-09-18T11:50:05.469Z,64.00
2018-09-18T11:52:34.699Z,64.10
2018-09-18T11:55:04.016Z,64.40
2018-09-18T11:57:33.509Z,64.10
2018-09-18T12:00:03.109Z,64.40
2018-09-18T12:02:32.361Z,64.30
2018-09-18T12:05:01.735Z,64.20
2018-09-18T12:07:31.009Z,64.40
2018-09-18T12:10:00.356Z,64.10
2018-09-18T12:12:29.644Z,64.20
2018-09-18T12:14:58.963Z,64.60
2018-09-18T12:17:28.346Z,64.40
2018-09-18T12:19:57.605Z,64.40
2018-09-18T12:22:27.051Z,64.50
2018-09-18T12:24:56.288Z,64.50
2018-09-18T12:27:25.634Z,64.70
2018-09-18T12:29:54.923Z,64.10
2018-09-18T12:32:24.249Z,64.80
2018-09-18T12:34:53.460Z,65.50
2018-09-18T12:37:23.161Z,64.70
2018-09-18T12:39:52.432Z,64.90
2018-09-18T12:42:21.818Z,64.40
2018-09-18T12:44:51.001Z,65.40
2018-09-18T12:47:20.338Z,64.20
2018-09-18T12:49:49.910Z,64.10
2018-09-18T12:52:19.101Z,64.60
2018-09-18T12:54:48.404Z,64.10
2018-09-18T12:57:17.805Z,64.30
2018-09-18T12:59:46.971Z,64.10
2018-09-18T13:02:16.236Z,64.20
2018-09-18T13:04:45.529Z,64.10
2018-09-18T13:07:14.881Z,64.10
2018-09-18T13:09:44.118Z,64.20
2018-09-18T13:12:13.305Z,64.10
2018-09-18T13:14:42.577Z,64.50
2018-09-18T13:17:12.042Z,64.30
2018-09-18T13:19:41.297Z,64.70
2018-09-18T13:22:10.540Z,64.80
2018-09-18T13:24:39.844Z,64.70
2018-09-18T13:27:09.236Z,64.80
2018-09-18T13:29:38.513Z,64.40
2018-09-18T13:32:08.150Z,64.50
2018-09-18T13:34:37.443Z,64.40
2018-09-18T13:37:06.932Z,64.10
2018-09-18T13:39:36.144Z,64.60
2018-09-18T13:42:05.469Z,64.80
2018-09-18T13:44:34.692Z,65.00
2018-09-18T13:47:03.975Z,64.60
2018-09-18T13:49:33.264Z,64.60
2018-09-18T13:52:02.757Z,64.50
2018-09-18T13:54:32.061Z,64.40
2018-09-18T13:57:01.411Z,64.90
2018-09-18T13:59:30.645Z,65.00
2018-09-18T14:01:59.973Z,64.90
2018-09-18T14:04:29.256Z,64.40
2018-09-18T14:06:58.583Z,64.60
2018-09-18T14:09:28.212Z,64.50
2018-09-18T14:11:57.393Z,64.90
2018-09-18T14:14:26.713Z,64.50
2018-09-18T14:16:56.013Z,64.70
2018-09-18T14:19:25.294Z,64.60
2018-09-18T14:21:55.383Z,64.40
2018-09-18T14:24:24.709Z,64.60
2018-09-18T14:26:54.085Z,64.70
2018-09-18T14:29:23.877Z,64.70
2018-09-18T14:31:53.163Z,64.50
2018-09-18T14:34:22.465Z,64.80
2018-09-18T14:36:51.728Z,64.70
2018-09-18T14:39:20.954Z,65.00
2018-09-18T14:41:50.307Z,64.80
2018-09-18T14:44:19.563Z,65.00
2018-09-18T14:46:48.869Z,64.80
2018-09-18T14:49:18.228Z,64.60
2018-09-18T14:51:47.461Z,64.80
2018-09-18T14:54:16.741Z,64.90
2018-09-18T14:56:46.125Z,65.00
2018-09-18T14:59:15.386Z,64.90
2018-09-18T15:01:44.692Z,64.90
2018-09-18T15:04:13.961Z,64.80
2018-09-18T15:06:43.242Z,65.00
2018-09-18T15:09:12.612Z,64.70
2018-09-18T15:11:41.884Z,64.70
2018-09-18T15:14:11.175Z,64.80
2018-09-18T15:16:40.508Z,65.10
2018-09-18T15:19:10.018Z,64.90
2018-09-18T15:21:39.347Z,65.00
2018-09-18T15:24:08.550Z,65.10
2018-09-18T15:26:38.181Z,64.90
2018-09-18T15:29:07.904Z,65.00
2018-09-18T15:31:37.192Z,64.90
2018-09-18T15:34:06.705Z,65.10
2018-09-18T15:36:36.045Z,65.20
2018-09-18T15:39:06.757Z,65.10
2018-09-18T15:41:36.133Z,65.30
2018-09-18T15:44:05.415Z,65.20
2018-09-18T15:46:35.142Z,65.20
2018-09-18T15:49:04.427Z,65.10
2018-09-18T15:51:33.737Z,65.20
2018-09-18T15:54:02.984Z,65.10
2018-09-18T15:56:32.383Z,65.20
2018-09-18T15:59:01.784Z,65.40
2018-09-18T16:01:31.699Z,65.40
2018-09-18T16:04:01.071Z,65.40
2018-09-18T16:06:30.403Z,65.40
2018-09-18T16:08:59.673Z,65.40
2018-09-18T16:11:28.975Z,65.20
2018-09-18T16:13:58.239Z,65.20
2018-09-18T16:16:27.612Z,65.20
2018-09-18T16:18:56.895Z,65.20
2018-09-18T16:21:26.200Z,65.10
2018-09-18T16:23:55.424Z,65.20
2018-09-18T16:26:24.867Z,65.20
2018-09-18T16:28:54.104Z,65.20
2018-09-18T16:31:23.445Z,65.10
2018-09-18T16:33:52.983Z,65.70
2018-09-18T16:36:22.320Z,65.20
2018-09-18T16:38:51.620Z,65.30
2018-09-18T16:41:20.911Z,65.50
2018-09-18T16:43:50.203Z,65.40
2018-09-18T16:46:20.581Z,66.10
2018-09-18T16:48:49.990Z,65.20
2018-09-18T16:51:19.239Z,65.20
2018-09-18T16:53:48.492Z,65.60
2018-09-18T16:56:17.875Z,65.60
2018-09-18T16:58:47.161Z,65.60
2018-09-18T17:01:16.444Z,65.50
2018-09-18T17:03:45.785Z,65.40
2018-09-18T17:06:15.219Z,65.50
2018-09-18T17:08:44.494Z,65.40
2018-09-18T17:11:13.787Z,65.40
2018-09-18T17:13:43.042Z,65.30
2018-09-18T17:16:12.396Z,65.50
2018-09-18T17:18:41.907Z,65.40
2018-09-18T17:21:11.302Z,65.40
2018-09-18T17:23:41.234Z,65.30
2018-09-18T17:26:10.599Z,65.40
2018-09-18T17:28:40.065Z,65.50
2018-09-18T17:31:09.459Z,65.70
2018-09-18T17:33:38.744Z,65.90
2018-09-18T17:36:08.155Z,65.80
2018-09-18T17:38:37.576Z,65.90
2018-09-18T17:41:07.922Z,66.00
2018-09-18T17:43:37.196Z,66.50
2018-09-18T17:46:06.681Z,66.30
2018-09-18T17:48:35.923Z,66.50
2018-09-18T17:51:05.223Z,66.60
2018-09-18T17:53:34.715Z,66.70
2018-09-18T17:56:04.051Z,66.50
2018-09-18T17:58:33.353Z,66.70
2018-09-18T18:01:03.096Z,66.70
2018-09-18T18:03:32.439Z,66.20
2018-09-18T18:06:01.843Z,65.80
2018-09-18T18:08:32.671Z,65.90
2018-09-18T18:11:02.136Z,66.00
2018-09-18T18:13:31.379Z,65.60
2018-09-18T18:16:00.648Z,65.40
2018-09-18T18:18:29.971Z,65.20
2018-09-18T18:20:59.286Z,65.80
2018-09-18T18:23:28.532Z,65.60
2018-09-18T18:25:57.868Z,65.50
2018-09-18T18:28:27.096Z,65.40
2018-09-18T18:30:56.284Z,65.10
2018-09-18T18:33:25.579Z,65.50
2018-09-18T18:35:54.893Z,65.20
2018-09-18T18:38:24.120Z,65.50
2018-09-18T18:40:53.567Z,65.50
2018-09-18T18:43:23.464Z,65.00
2018-09-18T18:45:52.801Z,65.20
2018-09-18T18:48:22.215Z,65.50
2018-09-18T18:50:51.361Z,65.70
2018-09-18T18:53:20.662Z,65.60
2018-09-18T18:55:50.030Z,66.00
2018-09-18T18:58:19.520Z,66.70
2018-09-18T19:00:48.770Z,65.80
2018-09-18T19:03:17.985Z,65.60
2018-09-18T19:05:47.268Z,65.80
2018-09-18T19:08:16.629Z,65.40
2018-09-18T19:10:45.868Z,65.60
2018-09-18T19:13:15.104Z,65.30
2018-09-18T19:15:44.850Z,65.00
2018-09-18T19:18:14.205Z,64.10
2018-09-18T19:20:43.466Z,64.00
2018-09-18T19:23:12.779Z,64.60
2018-09-18T19:25:42.068Z,64.10
2018-09-18T19:28:11.355Z,65.10
2018-09-18T19:30:40.705Z,65.60
2018-09-18T19:33:10.003Z,65.90
2018-09-18T19:35:39.219Z,66.20
2018-09-18T19:38:08.572Z,66.40
2018-09-18T19:40:37.859Z,66.00
2018-09-18T19:43:07.093Z,65.00
2018-09-18T19:45:36.351Z,64.40
2018-09-18T19:48:05.808Z,63.90
2018-09-18T19:50:35.048Z,64.00
2018-09-18T19:53:04.196Z,63.70
2018-09-18T19:55:33.395Z,63.80
2018-09-18T19:58:02.645Z,63.90
2018-09-18T20:00:31.810Z,64.00
2018-09-18T20:03:01.068Z,63.90
2018-09-18T20:05:30.241Z,63.90
2018-09-18T20:07:59.497Z,64.00
2018-09-18T20:10:28.666Z,64.10
2018-09-18T20:12:57.864Z,64.00
2018-09-18T20:15:27.057Z,64.10
2018-09-18T20:17:56.355Z,64.10
2018-09-18T20:20:25.940Z,64.10
2018-09-18T20:22:55.133Z,64.20
2018-09-18T20:25:24.385Z,64.20
2018-09-18T20:27:53.596Z,64.40
2018-09-18T20:30:22.785Z,64.40
2018-09-18T20:32:51.956Z,64.50
2018-09-18T20:35:21.216Z,64.40
2018-09-18T20:37:50.487Z,64.50
2018-09-18T20:40:19.686Z,64.40
2018-09-18T20:42:48.872Z,64.40
2018-09-18T20:45:18.249Z,64.40
2018-09-18T20:47:47.471Z,64.30
2018-09-18T20:50:16.654Z,64.30
2018-09-18T20:52:45.991Z,64.30
2018-09-18T20:55:15.166Z,64.30
2018-09-18T20:57:44.373Z,64.40
2018-09-18T21:00:13.572Z,64.40
2018-09-18T21:02:42.764Z,64.40
2018-09-18T21:05:12.016Z,64.40
2018-09-18T21:07:41.336Z,64.40
2018-09-18T21:10:10.537Z,64.40
2018-09-18T21:12:39.762Z,64.50
2018-09-18T21:15:08.940Z,64.40
2018-09-18T21:17:38.242Z,64.60
2018-09-18T21:20:07.435Z,64.50
2018-09-18T21:22:36.715Z,64.50
2018-09-18T21:26:29.362Z,64.40
2018-09-18T21:28:58.577Z,64.50
2018-09-18T21:31:27.757Z,64.50
2018-09-18T21:33:57.076Z,64.50
2018-09-18T21:36:26.311Z,64.40
2018-09-18T21:38:55.578Z,64.30
2018-09-18T21:41:24.755Z,64.40
2018-09-18T21:43:53.988Z,64.40
2018-09-18T21:46:23.203Z,64.40
2018-09-18T21:48:52.432Z,64.40
2018-09-18T21:51:21.609Z,64.40
2018-09-18T21:53:50.798Z,64.40
2018-09-18T21:56:19.996Z,64.50
2018-09-18T21:58:49.296Z,64.40
2018-09-18T22:01:18.536Z,64.40
2018-09-18T22:03:47.857Z,64.50
2018-09-18T22:06:17.101Z,64.60
2018-09-18T22:08:46.272Z,64.60
2018-09-18T22:11:15.507Z,64.60
2018-09-18T22:13:44.716Z,64.60
2018-09-18T22:16:13.985Z,64.60
2018-09-18T22:18:43.261Z,64.60
2018-09-18T22:21:12.481Z,64.60
2018-09-18T22:23:41.679Z,64.70
2018-09-18T22:26:10.902Z,64.70
2018-09-18T22:28:40.080Z,64.70
2018-09-18T22:31:09.702Z,64.70
2018-09-18T22:33:38.884Z,64.70
2018-09-18T22:36:08.080Z,64.80
2018-09-18T22:38:37.328Z,64.80
2018-09-18T22:41:06.676Z,64.80
2018-09-18T22:43:36.084Z,64.80
2018-09-18T22:46:05.278Z,64.80
2018-09-18T22:48:34.485Z,64.80
2018-09-18T22:51:03.683Z,64.90
2018-09-18T22:53:32.873Z,65.00
2018-09-18T22:56:02.124Z,64.90
2018-09-18T22:58:31.319Z,64.90
2018-09-18T23:01:00.542Z,64.80
2018-09-18T23:03:29.750Z,64.80
2018-09-18T23:05:59.020Z,64.80
2018-09-18T23:08:28.212Z,64.80
2018-09-18T23:10:57.372Z,64.90
2018-09-18T23:13:26.560Z,64.90
2018-09-18T23:15:55.874Z,64.90
2018-09-18T23:18:25.057Z,64.90
2018-09-18T23:20:54.236Z,64.90
2018-09-18T23:23:23.435Z,64.90
2018-09-18T23:25:52.659Z,64.90
2018-09-18T23:28:21.829Z,64.90
2018-09-18T23:30:51.032Z,65.00
2018-09-18T23:33:20.231Z,65.00
2018-09-18T23:35:49.422Z,64.90
2018-09-18T23:38:18.645Z,64.90
2018-09-18T23:40:47.840Z,65.00
2018-09-18T23:43:17.023Z,64.90
2018-09-18T23:45:52.841Z,64.90
2018-09-18T23:48:22.097Z,64.90
2018-09-18T23:50:51.307Z,64.90
2018-09-18T23:53:20.516Z,64.90
2018-09-18T23:55:49.759Z,64.90
2018-09-18T23:58:19.037Z,65.00
